Time;durP1;ratioP1;P1;durP2;ratioP2;P2;SDS_P1;SDS_P2;PMS_P1;PMS_P2;Temp;Humidity;BMP_temperature;BMP_pressure;BME280_temperature;BME280_humidity;BME280_pressure;Samples;Min_cycle;Max_cycle;Signal;HPM_P1;HPM_P2
2021/06/27 00:02:03;;;;;;;8.23;5.73;;;;;;;;;;5067620;28;20728;-57
2021/06/27 00:04:29;;;;;;;7.67;5.40;;;;;;;;;;5049673;28;20695;-57
2021/06/27 00:06:54;;;;;;;6.60;6.00;;;;;;;;;;5067284;28;20185;-56
2021/06/27 00:09:19;;;;;;;8.97;5.83;;;;;;;;;;5051503;28;20174;-55
2021/06/27 00:11:45;;;;;;;6.47;5.73;;;;;;;;;;5062909;28;20185;-55
2021/06/27 00:14:10;;;;;;;6.70;6.10;;;;;;;;;;5050455;28;20224;-58
2021/06/27 00:16:38;;;;;;;6.90;6.10;;;;;;;;;;5063902;28;20202;-57
2021/06/27 00:19:04;;;;;;;7.17;5.90;;;;;;;;;;5050508;28;20608;-57
2021/06/27 00:21:30;;;;;;;6.43;5.50;;;;;;;;;;5067082;28;20204;-57
2021/06/27 00:23:56;;;;;;;7.50;5.67;;;;;;;;;;5065101;28;20719;-56
2021/06/27 00:26:24;;;;;;;7.47;6.43;;;;;;;;;;5063389;28;20351;-57
2021/06/27 00:28:50;;;;;;;7.47;5.70;;;;;;;;;;5066126;28;20185;-57
2021/06/27 00:31:16;;;;;;;6.23;5.63;;;;;;;;;;5066215;28;20177;-57
2021/06/27 00:33:41;;;;;;;7.20;6.50;;;;;;;;;;5056466;28;20680;-57
2021/06/27 00:36:07;;;;;;;8.43;6.23;;;;;;;;;;5066366;28;20212;-57
2021/06/27 00:38:34;;;;;;;9.07;6.67;;;;;;;;;;5066060;28;20205;-57
2021/06/27 00:41:00;;;;;;;7.00;6.30;;;;;;;;;;5065228;28;20186;-57
2021/06/27 00:43:25;;;;;;;8.50;7.60;;;;;;;;;;5067619;28;20242;-57
2021/06/27 00:45:51;;;;;;;6.83;6.23;;;;;;;;;;5066766;28;20629;-58
2021/06/27 00:48:16;;;;;;;8.00;6.70;;;;;;;;;;5068365;28;20188;-57
2021/06/27 00:50:47;;;;;;;7.23;6.53;;;;;;;;;;5067991;28;20196;-57
2021/06/27 00:53:13;;;;;;;7.20;6.50;;;;;;;;;;5073205;28;20274;-56
2021/06/27 00:55:39;;;;;;;7.00;6.40;;;;;;;;;;5072222;28;20206;-57
2021/06/27 00:58:05;;;;;;;7.17;6.47;;;;;;;;;;5067814;28;20213;-57
2021/06/27 01:00:32;;;;;;;8.63;5.80;;;;;;;;;;5065599;28;20207;-56
2021/06/27 01:02:59;;;;;;;8.63;6.87;;;;;;;;;;5065127;28;20213;-56
2021/06/27 01:05:28;;;;;;;9.43;6.53;;;;;;;;;;5054301;28;20209;-56
2021/06/27 01:07:55;;;;;;;12.07;9.63;;;;;;;;;;5052292;28;20193;-57
2021/06/27 01:10:21;;;;;;;7.50;6.80;;;;;;;;;;5066615;28;20186;-56
2021/06/27 01:12:46;;;;;;;9.07;6.20;;;;;;;;;;5067360;28;20242;-56
2021/06/27 01:15:13;;;;;;;14.27;5.67;;;;;;;;;;5065761;28;20205;-57
2021/06/27 01:17:41;;;;;;;13.07;5.87;;;;;;;;;;5038281;28;20200;-58
2021/06/27 01:20:12;;;;;;;9.10;6.70;;;;;;;;;;5068345;28;20193;-57
2021/06/27 01:22:38;;;;;;;13.80;6.37;;;;;;;;;;5065137;28;20186;-57
2021/06/27 01:25:07;;;;;;;8.93;7.93;;;;;;;;;;5065933;28;20225;-56
2021/06/27 01:27:32;;;;;;;10.30;7.80;;;;;;;;;;5028808;28;20200;-56
2021/06/27 01:29:57;;;;;;;11.40;7.63;;;;;;;;;;5045751;28;20177;-58
2021/06/27 01:32:24;;;;;;;8.80;7.90;;;;;;;;;;5065571;28;20189;-57
2021/06/27 01:34:49;;;;;;;9.93;7.50;;;;;;;;;;5065896;28;20209;-56
2021/06/27 01:37:14;;;;;;;11.37;7.60;;;;;;;;;;5061621;28;20675;-56
2021/06/27 01:39:40;;;;;;;8.57;7.80;;;;;;;;;;5068660;28;20593;-56
2021/06/27 01:42:06;;;;;;;9.87;8.13;;;;;;;;;;5069362;28;20180;-58
2021/06/27 01:44:32;;;;;;;12.63;8.10;;;;;;;;;;5037475;28;20194;-56
2021/06/27 01:46:58;;;;;;;11.60;8.20;;;;;;;;;;5041407;28;20185;-57
2021/06/27 01:49:23;;;;;;;10.00;8.47;;;;;;;;;;5046299;28;20547;-58
2021/06/27 01:51:49;;;;;;;10.37;9.17;;;;;;;;;;5064151;28;20196;-56
2021/06/27 01:54:14;;;;;;;10.27;8.27;;;;;;;;;;5064481;28;20193;-56
2021/06/27 01:56:40;;;;;;;12.47;8.13;;;;;;;;;;5063882;28;20295;-57
2021/06/27 01:59:07;;;;;;;9.80;8.80;;;;;;;;;;5062124;28;20215;-56
2021/06/27 02:01:35;;;;;;;14.53;8.47;;;;;;;;;;5062304;28;20197;-56
2021/06/27 02:04:02;;;;;;;14.67;7.83;;;;;;;;;;5035245;28;20231;-57
2021/06/27 02:06:28;;;;;;;11.07;9.87;;;;;;;;;;5062194;28;20284;-56
2021/06/27 02:08:55;;;;;;;10.97;8.60;;;;;;;;;;5065167;28;20970;-56
2021/06/27 02:11:23;;;;;;;9.77;8.87;;;;;;;;;;5048695;28;20186;-57
2021/06/27 02:13:50;;;;;;;11.23;9.07;;;;;;;;;;5064454;28;20672;-56
2021/06/27 02:16:15;;;;;;;12.83;8.60;;;;;;;;;;5048177;28;20730;-57
2021/06/27 02:18:43;;;;;;;16.30;9.07;;;;;;;;;;5068072;28;20209;-55
2021/06/27 02:21:12;;;;;;;11.67;7.77;;;;;;;;;;5041454;28;20184;-57
2021/06/27 02:23:39;;;;;;;9.43;7.97;;;;;;;;;;5062627;28;20738;-57
2021/06/27 02:26:04;;;;;;;13.47;7.67;;;;;;;;;;5047916;28;20562;-56
2021/06/27 02:28:31;;;;;;;12.37;6.73;;;;;;;;;;5053930;28;20193;-56
2021/06/27 02:30:56;;;;;;;10.73;6.90;;;;;;;;;;5067250;28;20196;-55
2021/06/27 02:33:22;;;;;;;13.57;7.63;;;;;;;;;;5063036;28;20189;-57
2021/06/27 02:35:48;;;;;;;16.97;7.57;;;;;;;;;;5063997;28;20206;-56
2021/06/27 02:38:14;;;;;;;9.83;6.93;;;;;;;;;;5068070;28;20325;-57
2021/06/27 02:40:40;;;;;;;13.37;8.00;;;;;;;;;;5048632;28;20192;-56
2021/06/27 02:43:06;;;;;;;12.73;8.50;;;;;;;;;;5046783;28;20272;-57
2021/06/27 02:45:31;;;;;;;16.80;8.30;;;;;;;;;;5066573;28;20295;-55
2021/06/27 02:47:57;;;;;;;12.00;8.27;;;;;;;;;;5065456;28;20185;-55
2021/06/27 02:50:23;;;;;;;14.03;8.87;;;;;;;;;;5068072;28;20209;-56
2021/06/27 02:52:48;;;;;;;17.93;9.33;;;;;;;;;;5065748;28;20227;-57
2021/06/27 02:55:14;;;;;;;13.50;9.27;;;;;;;;;;5061467;28;20201;-57
2021/06/27 02:57:41;;;;;;;13.73;9.03;;;;;;;;;;5049090;28;20185;-56
2021/06/27 03:00:12;;;;;;;16.83;9.57;;;;;;;;;;5064677;28;20306;-57
2021/06/27 03:02:37;;;;;;;11.07;8.47;;;;;;;;;;5063415;28;20278;-57
2021/06/27 03:05:04;;;;;;;15.60;8.50;;;;;;;;;;5062317;28;20724;-58
2021/06/27 03:07:29;;;;;;;13.57;8.50;;;;;;;;;;5064212;28;20636;-56
2021/06/27 03:09:54;;;;;;;12.57;8.57;;;;;;;;;;5061109;28;20193;-55
2021/06/27 03:12:20;;;;;;;14.97;8.20;;;;;;;;;;5045911;28;20188;-58
2021/06/27 03:14:45;;;;;;;10.17;7.73;;;;;;;;;;5062872;28;20221;-56
2021/06/27 03:17:10;;;;;;;11.17;7.97;;;;;;;;;;5061187;28;20193;-56
2021/06/27 03:19:35;;;;;;;15.80;8.23;;;;;;;;;;5049267;28;20211;-55
2021/06/27 03:22:01;;;;;;;15.10;8.73;;;;;;;;;;5050290;28;20676;-56
2021/06/27 03:24:26;;;;;;;13.20;8.60;;;;;;;;;;5064027;28;20197;-57
2021/06/27 03:26:51;;;;;;;11.27;9.50;;;;;;;;;;5063456;28;20193;-56
2021/06/27 03:29:17;;;;;;;11.13;9.83;;;;;;;;;;5049347;28;20178;-56
2021/06/27 03:31:42;;;;;;;13.33;9.53;;;;;;;;;;5049425;28;20669;-56
2021/06/27 03:34:07;;;;;;;10.53;9.37;;;;;;;;;;5068246;28;20196;-57
2021/06/27 03:36:33;;;;;;;11.40;10.20;;;;;;;;;;5060018;28;20212;-57
2021/06/27 03:41:29;;;;;;;14.37;9.37;;;;;;;;;;5063631;28;20193;-55
2021/06/27 03:43:54;;;;;;;12.83;9.90;;;;;;;;;;5062933;28;20184;-56
2021/06/27 03:46:20;;;;;;;16.13;10.27;;;;;;;;;;5069141;28;20205;-57
2021/06/27 03:48:45;;;;;;;12.60;9.50;;;;;;;;;;5051348;28;20192;-58
2021/06/27 03:51:10;;;;;;;15.57;10.37;;;;;;;;;;5069911;28;20197;-55
2021/06/27 03:53:36;;;;;;;14.20;9.77;;;;;;;;;;5063617;28;20210;-57
2021/06/27 03:56:01;;;;;;;10.67;9.33;;;;;;;;;;5067886;28;20217;-57
2021/06/27 03:58:27;;;;;;;14.80;7.90;;;;;;;;;;5063439;28;20738;-57
2021/06/27 04:00:53;;;;;;;11.30;8.73;;;;;;;;;;5047483;28;20710;-56
2021/06/27 04:03:20;;;;;;;10.00;7.53;;;;;;;;;;5058202;28;20193;-55
2021/06/27 04:05:45;;;;;;;14.43;7.90;;;;;;;;;;5056205;28;20647;-56
2021/06/27 04:08:11;;;;;;;9.27;8.37;;;;;;;;;;5048517;28;20189;-58
2021/06/27 04:10:36;;;;;;;9.50;7.73;;;;;;;;;;5062137;28;20192;-56
2021/06/27 04:13:02;;;;;;;10.50;9.13;;;;;;;;;;5064027;28;20208;-57
2021/06/27 04:15:27;;;;;;;13.60;8.77;;;;;;;;;;5045083;28;20712;-56
2021/06/27 04:17:52;;;;;;;17.77;8.53;;;;;;;;;;5064839;28;20217;-56
2021/06/27 04:20:18;;;;;;;11.70;8.50;;;;;;;;;;5046596;28;20197;-55
2021/06/27 04:22:43;;;;;;;11.57;7.77;;;;;;;;;;5067247;28;20189;-56
2021/06/27 04:25:09;;;;;;;8.93;7.90;;;;;;;;;;5049640;28;20207;-57
2021/06/27 04:27:35;;;;;;;11.17;7.87;;;;;;;;;;5062066;28;20268;-57
2021/06/27 04:30:01;;;;;;;9.37;8.17;;;;;;;;;;5061331;28;20280;-57
2021/06/27 04:32:26;;;;;;;9.93;7.57;;;;;;;;;;5078722;28;20267;-57
2021/06/27 04:34:52;;;;;;;12.23;7.90;;;;;;;;;;5065617;28;20263;-55
2021/06/27 04:37:18;;;;;;;13.17;8.07;;;;;;;;;;5066743;28;20233;-58
2021/06/27 04:39:43;;;;;;;7.90;7.07;;;;;;;;;;5067431;28;20220;-57
2021/06/27 04:42:09;;;;;;;11.17;7.57;;;;;;;;;;5069780;28;20181;-56
2021/06/27 04:44:34;;;;;;;10.57;7.90;;;;;;;;;;5049684;28;20236;-57
2021/06/27 04:46:59;;;;;;;8.93;7.47;;;;;;;;;;5065818;28;20196;-55
2021/06/27 04:49:25;;;;;;;10.60;8.47;;;;;;;;;;5061396;28;20181;-56
2021/06/27 04:51:50;;;;;;;9.57;8.30;;;;;;;;;;5068610;28;20201;-57
2021/06/27 04:54:16;;;;;;;11.07;8.30;;;;;;;;;;5057233;28;20204;-57
2021/06/27 04:56:41;;;;;;;12.27;8.27;;;;;;;;;;5063878;28;20194;-57
2021/06/27 04:59:07;;;;;;;9.50;8.27;;;;;;;;;;5057586;28;20622;-57
2021/06/27 05:01:32;;;;;;;13.67;8.40;;;;;;;;;;5046546;28;20251;-57
2021/06/27 05:03:57;;;;;;;10.43;9.10;;;;;;;;;;5066223;28;20840;-57
2021/06/27 05:06:23;;;;;;;10.52;8.05;;;;;;;;;;5066113;28;20866;-57
2021/06/27 05:08:48;;;;;;;10.30;8.17;;;;;;;;;;5065960;28;20200;-57
2021/06/27 05:11:13;;;;;;;9.80;8.63;;;;;;;;;;5062049;28;20810;-58
2021/06/27 05:13:39;;;;;;;11.63;8.90;;;;;;;;;;5046932;28;20189;-55
2021/06/27 05:16:04;;;;;;;10.20;8.05;;;;;;;;;;5048519;28;20299;-56
2021/06/27 05:18:29;;;;;;;12.43;8.33;;;;;;;;;;5052143;28;20260;-56
2021/06/27 05:20:55;;;;;;;10.55;9.20;;;;;;;;;;5056067;28;20182;-57
2021/06/27 05:23:20;;;;;;;10.47;8.33;;;;;;;;;;5064701;28;20188;-55
2021/06/27 05:25:45;;;;;;;14.77;9.05;;;;;;;;;;5045236;28;20217;-57
2021/06/27 05:28:11;;;;;;;12.70;9.60;;;;;;;;;;5068687;28;20193;-57
2021/06/27 05:30:37;;;;;;;12.13;8.95;;;;;;;;;;5048450;28;20262;-55
2021/06/27 05:33:02;;;;;;;13.30;9.65;;;;;;;;;;5050000;28;20768;-57
2021/06/27 05:35:28;;;;;;;12.80;9.18;;;;;;;;;;5066744;28;20197;-58
2021/06/27 05:37:54;;;;;;;11.18;9.02;;;;;;;;;;5050411;28;20185;-55
2021/06/27 05:40:19;;;;;;;10.35;9.00;;;;;;;;;;5065734;28;20212;-57
2021/06/27 05:42:46;;;;;;;13.57;9.07;;;;;;;;;;5067150;28;20245;-56
2021/06/27 05:45:12;;;;;;;11.30;9.07;;;;;;;;;;5068556;28;20262;-56
2021/06/27 05:47:37;;;;;;;11.02;9.35;;;;;;;;;;5067730;28;20602;-55
2021/06/27 05:50:03;;;;;;;11.75;9.35;;;;;;;;;;5059815;28;20551;-55
2021/06/27 05:52:29;;;;;;;10.40;8.40;;;;;;;;;;5060885;28;20238;-56
2021/06/27 05:54:54;;;;;;;11.00;9.50;;;;;;;;;;5065882;28;20213;-57
2021/06/27 05:57:19;;;;;;;11.70;10.02;;;;;;;;;;5067791;28;20230;-57
2021/06/27 05:59:45;;;;;;;10.43;8.70;;;;;;;;;;5062949;28;20206;-55
2021/06/27 06:02:10;;;;;;;10.25;9.15;;;;;;;;;;5062198;28;20177;-57
2021/06/27 06:04:36;;;;;;;11.25;9.43;;;;;;;;;;5065941;28;20631;-55
2021/06/27 06:07:01;;;;;;;11.05;9.18;;;;;;;;;;5050847;28;20186;-57
2021/06/27 06:09:26;;;;;;;11.73;8.85;;;;;;;;;;5064181;28;20272;-57
2021/06/27 06:11:52;;;;;;;11.13;8.73;;;;;;;;;;5047646;28;20190;-57
2021/06/27 06:14:17;;;;;;;10.35;8.55;;;;;;;;;;5063291;28;20177;-56
2021/06/27 06:16:45;;;;;;;9.20;8.20;;;;;;;;;;5067116;28;20189;-55
2021/06/27 06:19:10;;;;;;;9.55;8.07;;;;;;;;;;5059415;28;20202;-56
2021/06/27 06:21:36;;;;;;;9.10;7.13;;;;;;;;;;5048509;28;20185;-57
2021/06/27 06:24:01;;;;;;;8.88;7.22;;;;;;;;;;5062882;28;20196;-55
2021/06/27 06:26:26;;;;;;;8.25;7.05;;;;;;;;;;5061717;28;20527;-62
2021/06/27 06:28:52;;;;;;;10.27;7.78;;;;;;;;;;5065516;28;20220;-57
2021/06/27 06:31:17;;;;;;;8.95;7.22;;;;;;;;;;5067279;28;20192;-57
2021/06/27 06:33:42;;;;;;;7.35;6.43;;;;;;;;;;5061937;28;20237;-57
2021/06/27 06:36:08;;;;;;;8.18;5.88;;;;;;;;;;5047279;28;20248;-57
2021/06/27 06:38:33;;;;;;;7.57;5.93;;;;;;;;;;5065534;28;20576;-59
2021/06/27 06:40:58;;;;;;;7.72;5.38;;;;;;;;;;5062338;28;20210;-58
2021/06/27 06:43:24;;;;;;;5.82;4.05;;;;;;;;;;5065479;28;20300;-57
2021/06/27 06:45:49;;;;;;;9.48;4.28;;;;;;;;;;5065411;28;20208;-56
2021/06/27 06:48:14;;;;;;;5.13;4.63;;;;;;;;;;5067072;28;20181;-55
2021/06/27 06:50:40;;;;;;;4.78;4.30;;;;;;;;;;5067290;28;20575;-56
2021/06/27 06:53:05;;;;;;;5.20;4.05;;;;;;;;;;5066293;28;20215;-61
2021/06/27 06:55:31;;;;;;;4.57;4.10;;;;;;;;;;5055573;28;20206;-55
2021/06/27 06:57:56;;;;;;;4.10;3.80;;;;;;;;;;5061478;28;20197;-56
2021/06/27 07:00:22;;;;;;;4.50;4.10;;;;;;;;;;5053361;28;20177;-56
2021/06/27 07:02:48;;;;;;;6.20;4.03;;;;;;;;;;5056274;28;20201;-56
2021/06/27 07:05:13;;;;;;;6.38;3.85;;;;;;;;;;5065859;28;20278;-56
2021/06/27 07:07:40;;;;;;;6.15;3.97;;;;;;;;;;5065362;28;20876;-55
2021/06/27 07:10:07;;;;;;;4.85;3.70;;;;;;;;;;5046135;28;20607;-56
2021/06/27 07:12:32;;;;;;;4.13;3.60;;;;;;;;;;5053490;28;20560;-55
2021/06/27 07:14:58;;;;;;;3.28;3.03;;;;;;;;;;5057733;28;20218;-56
2021/06/27 07:17:23;;;;;;;4.95;3.35;;;;;;;;;;5069841;28;20852;-56
2021/06/27 07:19:49;;;;;;;5.95;3.00;;;;;;;;;;5064264;28;20202;-55
2021/06/27 07:22:14;;;;;;;3.50;2.97;;;;;;;;;;5066936;28;20213;-54
2021/06/27 07:24:39;;;;;;;3.90;2.80;;;;;;;;;;5052509;28;20205;-56
2021/06/27 07:27:06;;;;;;;3.28;2.70;;;;;;;;;;5069603;28;20189;-56
2021/06/27 07:29:31;;;;;;;3.22;2.80;;;;;;;;;;5067723;28;20189;-56
2021/06/27 07:31:56;;;;;;;2.92;2.72;;;;;;;;;;5053814;28;20200;-56
2021/06/27 07:34:22;;;;;;;2.97;2.65;;;;;;;;;;5071010;28;20181;-56
2021/06/27 07:36:47;;;;;;;3.97;2.85;;;;;;;;;;5053831;28;20177;-56
2021/06/27 07:39:14;;;;;;;3.35;3.00;;;;;;;;;;5069128;28;20232;-55
2021/06/27 07:41:39;;;;;;;2.75;2.55;;;;;;;;;;5066224;28;20185;-55
2021/06/27 07:44:05;;;;;;;2.75;2.55;;;;;;;;;;5069287;28;20194;-55
2021/06/27 07:46:30;;;;;;;3.05;2.85;;;;;;;;;;5067785;28;20229;-54
2021/06/27 07:48:55;;;;;;;3.53;3.00;;;;;;;;;;5068828;28;20216;-56
2021/06/27 07:51:21;;;;;;;3.15;2.95;;;;;;;;;;5068303;28;20200;-55
2021/06/27 07:53:46;;;;;;;3.35;3.15;;;;;;;;;;5065150;28;20700;-55
2021/06/27 07:56:11;;;;;;;3.17;2.88;;;;;;;;;;5051006;28;20746;-56
2021/06/27 07:58:37;;;;;;;3.30;3.10;;;;;;;;;;5051795;28;20231;-58
2021/06/27 08:01:02;;;;;;;3.85;2.97;;;;;;;;;;5069555;28;20706;-57
2021/06/27 08:03:27;;;;;;;3.47;3.17;;;;;;;;;;5050777;28;20196;-57
2021/06/27 08:05:53;;;;;;;3.75;3.40;;;;;;;;;;5065132;28;20205;-56
2021/06/27 08:08:18;;;;;;;3.70;3.45;;;;;;;;;;5062630;28;20233;-58
2021/06/27 08:10:44;;;;;;;3.25;3.05;;;;;;;;;;5054983;28;20243;-56
2021/06/27 08:13:10;;;;;;;3.70;3.50;;;;;;;;;;5059817;28;20753;-57
2021/06/27 08:15:35;;;;;;;3.65;3.42;;;;;;;;;;5050466;28;20688;-55
2021/06/27 08:18:01;;;;;;;3.42;3.22;;;;;;;;;;5050963;28;20266;-56
2021/06/27 08:20:27;;;;;;;2.88;2.67;;;;;;;;;;5055424;28;20173;-56
2021/06/27 08:22:53;;;;;;;3.40;3.20;;;;;;;;;;5069911;28;20188;-56
2021/06/27 08:25:19;;;;;;;3.40;3.10;;;;;;;;;;5064516;28;20206;-55
2021/06/27 08:27:44;;;;;;;3.58;3.28;;;;;;;;;;5066761;28;20201;-56
2021/06/27 08:30:11;;;;;;;3.35;3.08;;;;;;;;;;5060803;28;20658;-56
2021/06/27 08:32:42;;;;;;;2.90;2.70;;;;;;;;;;5069194;28;20673;-55
2021/06/27 08:35:08;;;;;;;3.10;2.90;;;;;;;;;;5049542;28;20627;-55
2021/06/27 08:37:33;;;;;;;3.40;3.20;;;;;;;;;;5049612;28;20185;-55
2021/06/27 08:39:59;;;;;;;3.05;2.85;;;;;;;;;;5069255;28;20632;-57
2021/06/27 08:42:24;;;;;;;3.38;3.13;;;;;;;;;;5065340;28;20208;-56
2021/06/27 08:44:50;;;;;;;3.55;3.00;;;;;;;;;;5053358;28;20197;-56
2021/06/27 08:47:16;;;;;;;3.72;3.42;;;;;;;;;;5031711;28;20186;-56
2021/06/27 08:49:46;;;;;;;3.60;3.30;;;;;;;;;;5066049;28;20188;-56
2021/06/27 08:52:16;;;;;;;3.78;3.45;;;;;;;;;;5044808;28;20181;-57
2021/06/27 08:54:41;;;;;;;3.55;3.25;;;;;;;;;;5068739;28;20197;-56
2021/06/27 08:57:07;;;;;;;3.80;3.50;;;;;;;;;;5066883;28;20196;-57
2021/06/27 08:59:32;;;;;;;3.55;3.25;;;;;;;;;;5054936;28;20262;-55
2021/06/27 09:01:59;;;;;;;3.60;3.28;;;;;;;;;;5061146;28;20235;-56
2021/06/27 09:04:24;;;;;;;4.07;3.78;;;;;;;;;;5051458;28;20735;-55
2021/06/27 09:06:49;;;;;;;3.80;3.50;;;;;;;;;;5066841;28;20181;-56
2021/06/27 09:09:20;;;;;;;3.33;3.13;;;;;;;;;;5049151;28;20832;-56
2021/06/27 09:12:03;;;;;;;3.58;3.28;;;;;;;;;;5051689;28;20268;-55
2021/06/27 09:14:38;;;;;;;3.45;3.25;;;;;;;;;;5066437;28;20185;-55
2021/06/27 09:17:23;;;;;;;5.10;3.88;;;;;;;;;;5050550;28;20184;-56
2021/06/27 09:19:51;;;;;;;3.72;3.42;;;;;;;;;;5037438;28;20298;-56
2021/06/27 09:22:17;;;;;;;4.68;3.45;;;;;;;;;;5069182;28;20581;-55
2021/06/27 09:24:44;;;;;;;3.72;3.20;;;;;;;;;;5060281;28;20209;-56
2021/06/27 09:27:17;;;;;;;4.28;3.60;;;;;;;;;;5067657;28;20189;-56
2021/06/27 09:29:43;;;;;;;5.05;3.50;;;;;;;;;;5068491;28;20266;-55
2021/06/27 09:32:22;;;;;;;4.20;3.80;;;;;;;;;;5060515;28;20243;-55
2021/06/27 09:34:48;;;;;;;3.33;3.10;;;;;;;;;;5066660;28;20660;-55
2021/06/27 09:37:16;;;;;;;3.88;3.58;;;;;;;;;;5067674;28;20220;-56
2021/06/27 09:39:59;;;;;;;4.20;3.90;;;;;;;;;;5049067;28;20430;-55
2021/06/27 09:42:26;;;;;;;4.00;3.70;;;;;;;;;;5061254;28;20196;-56
2021/06/27 09:45:08;;;;;;;3.92;3.63;;;;;;;;;;5061334;28;20213;-56
2021/06/27 09:47:34;;;;;;;4.03;3.72;;;;;;;;;;5065798;28;20264;-56
2021/06/27 09:50:29;;;;;;;5.10;4.03;;;;;;;;;;5065435;28;20188;-56
2021/06/27 09:52:55;;;;;;;3.67;3.38;;;;;;;;;;5066347;28;20189;-56
2021/06/27 09:55:20;;;;;;;3.45;3.15;;;;;;;;;;5064757;28;20583;-56
2021/06/27 09:57:47;;;;;;;4.00;3.60;;;;;;;;;;5047650;28;20199;-56
2021/06/27 10:00:40;;;;;;;4.30;3.97;;;;;;;;;;5057042;28;20370;-57
2021/06/27 10:03:08;;;;;;;3.85;3.55;;;;;;;;;;5057104;28;20220;-57
2021/06/27 10:05:34;;;;;;;4.07;3.67;;;;;;;;;;5066844;28;20204;-57
2021/06/27 10:07:59;;;;;;;4.55;4.15;;;;;;;;;;5066935;28;20189;-56
2021/06/27 10:10:25;;;;;;;3.83;3.53;;;;;;;;;;5066797;28;20678;-56
2021/06/27 10:12:51;;;;;;;3.85;3.55;;;;;;;;;;5048481;28;20218;-56
2021/06/27 10:15:16;;;;;;;3.75;3.50;;;;;;;;;;5060418;28;20261;-57
2021/06/27 10:17:43;;;;;;;4.00;3.70;;;;;;;;;;5057546;28;20201;-57
2021/06/27 10:20:12;;;;;;;3.72;3.42;;;;;;;;;;5061661;28;20571;-57
2021/06/27 10:22:38;;;;;;;3.40;3.20;;;;;;;;;;5049467;28;20223;-57
2021/06/27 10:25:07;;;;;;;3.58;3.38;;;;;;;;;;5050198;28;20209;-57
2021/06/27 10:27:33;;;;;;;4.13;3.83;;;;;;;;;;5067323;28;20178;-57
2021/06/27 10:30:00;;;;;;;4.10;3.80;;;;;;;;;;5055030;28;20230;-57
2021/06/27 10:32:26;;;;;;;3.50;3.30;;;;;;;;;;5068679;28;20189;-57
2021/06/27 10:34:54;;;;;;;4.07;3.78;;;;;;;;;;5065183;28;20211;-56
2021/06/27 10:37:33;;;;;;;3.45;3.15;;;;;;;;;;5060869;28;20177;-55
2021/06/27 10:39:59;;;;;;;3.78;3.40;;;;;;;;;;5064377;28;20211;-56
2021/06/27 10:42:50;;;;;;;4.25;3.85;;;;;;;;;;5064845;28;20197;-57
2021/06/27 10:45:48;;;;;;;4.03;3.72;;;;;;;;;;5061981;28;20223;-56
2021/06/27 10:48:31;;;;;;;3.70;3.38;;;;;;;;;;5038998;28;20199;-58
2021/06/27 10:50:57;;;;;;;3.80;3.50;;;;;;;;;;5061044;28;20204;-56
2021/06/27 10:53:22;;;;;;;10.18;4.35;;;;;;;;;;5042774;28;20605;-57
2021/06/27 10:55:48;;;;;;;3.70;3.38;;;;;;;;;;5044091;28;20621;-56
2021/06/27 10:58:15;;;;;;;3.80;3.50;;;;;;;;;;5061125;28;20772;-57
2021/06/27 11:01:00;;;;;;;3.70;3.40;;;;;;;;;;5044653;28;20204;-56
2021/06/27 11:03:41;;;;;;;6.70;3.50;;;;;;;;;;5055741;28;20244;-56
2021/06/27 11:06:26;;;;;;;3.67;3.38;;;;;;;;;;5066477;28;20201;-56
2021/06/27 11:08:56;;;;;;;3.42;3.13;;;;;;;;;;5046509;28;20207;-56
2021/06/27 11:11:23;;;;;;;3.58;3.28;;;;;;;;;;5067049;28;20307;-57
2021/06/27 11:14:10;;;;;;;10.40;3.20;;;;;;;;;;5064266;28;20732;-56
2021/06/27 11:16:59;;;;;;;3.08;2.80;;;;;;;;;;5066052;28;20234;-57
2021/06/27 11:19:27;;;;;;;3.70;3.40;;;;;;;;;;5064912;28;20583;-56
2021/06/27 11:22:12;;;;;;;3.22;3.03;;;;;;;;;;5067635;28;20231;-56
2021/06/27 11:24:37;;;;;;;3.55;3.25;;;;;;;;;;5046657;28;20219;-57
2021/06/27 11:27:03;;;;;;;8.05;6.75;;;;;;;;;;5065376;28;20186;-56
2021/06/27 11:29:28;;;;;;;3.72;3.42;;;;;;;;;;5049098;28;20189;-56
2021/06/27 11:31:55;;;;;;;3.80;3.50;;;;;;;;;;5047586;28;20186;-56
2021/06/27 11:34:21;;;;;;;3.60;3.40;;;;;;;;;;5048909;28;20808;-56
2021/06/27 11:36:50;;;;;;;3.25;3.05;;;;;;;;;;5066102;28;20200;-57
2021/06/27 11:39:50;;;;;;;5.97;5.53;;;;;;;;;;5048356;28;20212;-56
2021/06/27 11:42:22;;;;;;;2.95;2.75;;;;;;;;;;5059506;28;20182;-57
2021/06/27 11:44:47;;;;;;;2.90;2.70;;;;;;;;;;5055535;28;20213;-56
2021/06/27 11:47:22;;;;;;;2.85;2.65;;;;;;;;;;5066718;28;20242;-56
2021/06/27 11:49:48;;;;;;;5.13;2.70;;;;;;;;;;5065790;28;20242;-56
2021/06/27 11:52:13;;;;;;;2.88;2.67;;;;;;;;;;5066938;28;20264;-56
2021/06/27 11:54:39;;;;;;;3.63;3.10;;;;;;;;;;5065602;28;20236;-57
2021/06/27 11:57:05;;;;;;;3.30;3.00;;;;;;;;;;5056608;28;20190;-56
2021/06/27 11:59:37;;;;;;;2.90;2.70;;;;;;;;;;5058655;28;20210;-56
2021/06/27 12:02:06;;;;;;;2.90;2.58;;;;;;;;;;5048864;28;20206;-56
2021/06/27 12:04:58;;;;;;;2.70;2.50;;;;;;;;;;5043431;28;20936;-57
2021/06/27 12:07:24;;;;;;;2.58;2.22;;;;;;;;;;5065080;28;20173;-57
2021/06/27 12:09:49;;;;;;;2.83;2.63;;;;;;;;;;5068697;28;20186;-56
2021/06/27 12:12:14;;;;;;;3.03;2.80;;;;;;;;;;5068511;28;20223;-56
2021/06/27 12:14:40;;;;;;;3.08;2.88;;;;;;;;;;5062569;28;20214;-56
2021/06/27 12:17:27;;;;;;;3.40;3.10;;;;;;;;;;5063890;28;20405;-56
2021/06/27 12:19:53;;;;;;;2.78;2.58;;;;;;;;;;5051374;28;20278;-56
2021/06/27 12:22:19;;;;;;;2.83;2.63;;;;;;;;;;5069517;28;20193;-56
2021/06/27 12:24:45;;;;;;;3.00;2.80;;;;;;;;;;5051557;28;20204;-56
2021/06/27 12:27:11;;;;;;;2.45;2.30;;;;;;;;;;5065993;28;20215;-56
2021/06/27 12:29:37;;;;;;;2.78;2.58;;;;;;;;;;5065901;28;20669;-59
2021/06/27 12:32:05;;;;;;;2.90;2.70;;;;;;;;;;5051013;28;20180;-56
2021/06/27 12:34:31;;;;;;;2.95;2.70;;;;;;;;;;5067224;28;20223;-56
2021/06/27 12:36:56;;;;;;;2.75;2.55;;;;;;;;;;5066275;28;20189;-56
2021/06/27 12:39:23;;;;;;;2.78;2.58;;;;;;;;;;5064683;28;20243;-56
2021/06/27 12:41:49;;;;;;;2.60;2.40;;;;;;;;;;5064330;28;20190;-56
2021/06/27 12:44:16;;;;;;;2.63;2.42;;;;;;;;;;5066233;28;20189;-56
2021/06/27 12:46:47;;;;;;;2.60;2.40;;;;;;;;;;5049220;28;20185;-56
2021/06/27 12:49:15;;;;;;;3.55;2.80;;;;;;;;;;5066509;28;20619;-57
2021/06/27 12:51:44;;;;;;;2.63;2.42;;;;;;;;;;5050789;28;20744;-56
2021/06/27 12:54:17;;;;;;;3.65;2.63;;;;;;;;;;5047842;28;20200;-58
2021/06/27 12:57:12;;;;;;;2.92;2.42;;;;;;;;;;5045195;28;20197;-54
2021/06/27 12:59:37;;;;;;;2.70;2.50;;;;;;;;;;5035963;28;20584;-56
2021/06/27 13:02:22;;;;;;;2.22;2.08;;;;;;;;;;5066956;28;20197;-56
2021/06/27 13:04:47;;;;;;;2.70;2.35;;;;;;;;;;5067188;28;20220;-56
2021/06/27 13:07:14;;;;;;;2.60;2.40;;;;;;;;;;5065286;28;20190;-56
2021/06/27 13:10:03;;;;;;;2.72;2.53;;;;;;;;;;5067133;28;20257;-56
2021/06/27 13:12:30;;;;;;;2.63;2.42;;;;;;;;;;5066728;28;20720;-56
2021/06/27 13:15:18;;;;;;;2.58;2.38;;;;;;;;;;5065461;28;20295;-56
2021/06/27 13:17:52;;;;;;;2.42;2.30;;;;;;;;;;5067203;28;20177;-56
2021/06/27 13:20:22;;;;;;;3.35;2.80;;;;;;;;;;5050033;28;20290;-57
2021/06/27 13:23:06;;;;;;;3.25;2.95;;;;;;;;;;5052448;28;20280;-56
2021/06/27 13:25:45;;;;;;;3.15;2.85;;;;;;;;;;5066083;28;20213;-57
2021/06/27 13:28:26;;;;;;;3.10;2.90;;;;;;;;;;5067949;28;20185;-57
2021/06/27 13:30:57;;;;;;;2.60;2.40;;;;;;;;;;5049366;28;20185;-57
2021/06/27 13:33:29;;;;;;;2.60;2.40;;;;;;;;;;5065324;28;20684;-58
2021/06/27 13:36:05;;;;;;;2.28;2.13;;;;;;;;;;5067639;28;20794;-58
2021/06/27 13:38:33;;;;;;;2.35;2.20;;;;;;;;;;5062408;28;20216;-58
2021/06/27 13:40:59;;;;;;;4.28;2.67;;;;;;;;;;5051303;28;20185;-59
2021/06/27 13:43:24;;;;;;;2.80;2.60;;;;;;;;;;5083366;28;20183;-59
2021/06/27 13:45:51;;;;;;;3.85;2.53;;;;;;;;;;5056476;28;20736;-56
2021/06/27 13:48:17;;;;;;;2.35;2.22;;;;;;;;;;5065954;28;20188;-60
2021/06/27 13:50:43;;;;;;;2.63;2.25;;;;;;;;;;5049736;28;20303;-60
2021/06/27 13:53:08;;;;;;;2.50;2.30;;;;;;;;;;5064334;28;20217;-60
2021/06/27 13:55:34;;;;;;;2.47;2.20;;;;;;;;;;5064304;28;20279;-59
2021/06/27 13:57:59;;;;;;;2.67;2.47;;;;;;;;;;5053209;28;20680;-59
2021/06/27 14:00:26;;;;;;;3.42;2.60;;;;;;;;;;5065277;28;20197;-61
2021/06/27 14:02:52;;;;;;;2.38;2.17;;;;;;;;;;5046191;28;20199;-59
2021/06/27 14:05:19;;;;;;;2.30;2.10;;;;;;;;;;5044471;28;20288;-59
2021/06/27 14:07:47;;;;;;;2.33;2.13;;;;;;;;;;5062241;28;20181;-60
2021/06/27 14:10:16;;;;;;;2.20;2.10;;;;;;;;;;5094764;22;20209;-76
2021/06/27 14:12:43;;;;;;;2.25;2.05;;;;;;;;;;5086592;28;20247;-76
2021/06/27 14:15:09;;;;;;;2.40;2.20;;;;;;;;;;5081614;28;20230;-76
2021/06/27 14:17:35;;;;;;;2.55;2.35;;;;;;;;;;5097890;28;20192;-76
2021/06/27 14:20:01;;;;;;;2.63;2.42;;;;;;;;;;5066759;28;20204;-76
2021/06/27 14:24:59;;;;;;;2.60;2.40;;;;;;;;;;5043293;28;20748;-55
2021/06/27 14:27:25;;;;;;;2.33;2.13;;;;;;;;;;5045146;28;20198;-55
2021/06/27 14:29:51;;;;;;;2.55;2.35;;;;;;;;;;5044389;28;20210;-55
2021/06/27 14:32:17;;;;;;;1.95;1.83;;;;;;;;;;5026090;28;20269;-55
2021/06/27 14:34:42;;;;;;;3.63;2.10;;;;;;;;;;5026059;28;20217;-55
2021/06/27 14:37:07;;;;;;;2.35;2.25;;;;;;;;;;5027248;28;20183;-55
2021/06/27 14:39:33;;;;;;;1.90;1.80;;;;;;;;;;5038034;28;20207;-54
2021/06/27 14:41:59;;;;;;;1.92;1.83;;;;;;;;;;5018255;28;20198;-55
2021/06/27 14:44:26;;;;;;;2.20;1.90;;;;;;;;;;5020377;28;20194;-56
2021/06/27 14:46:53;;;;;;;2.55;2.35;;;;;;;;;;4992505;28;20205;-54